createdAt,value
2022-11-24T00:03:18.416Z,100.00
2022-11-24T00:13:19.867Z,100.00
2022-11-24T00:23:21.253Z,100.00
2022-11-24T00:33:22.663Z,100.00
2022-11-24T00:43:24.203Z,100.00
2022-11-24T00:53:26.094Z,100.00
2022-11-24T01:03:27.720Z,100.00
2022-11-24T01:13:29.085Z,100.00
2022-11-24T01:23:30.558Z,100.00
2022-11-24T01:33:32.120Z,100.00
2022-11-24T01:43:34.296Z,100.00
2022-11-24T01:53:36.808Z,100.00
2022-11-24T02:03:43.764Z,100.00
2022-11-24T02:13:46.247Z,100.00
2022-11-24T02:24:05.898Z,100.00
2022-11-24T02:34:07.255Z,100.00
2022-11-24T02:44:09.169Z,100.00
2022-11-24T02:54:10.563Z,100.00
2022-11-24T03:04:12.656Z,100.00
2022-11-24T03:14:14.035Z,100.00
2022-11-24T03:24:15.687Z,100.00
2022-11-24T03:34:17.085Z,100.00
2022-11-24T03:44:18.505Z,100.00
2022-11-24T03:54:19.876Z,100.00
2022-11-24T04:04:21.271Z,100.00
2022-11-24T04:14:22.676Z,100.00
2022-11-24T04:24:24.049Z,100.00
2022-11-24T04:34:25.377Z,100.00
2022-11-24T04:44:26.992Z,100.00
2022-11-24T04:54:28.316Z,100.00
2022-11-24T05:04:29.661Z,100.00
2022-11-24T05:14:31.232Z,100.00
2022-11-24T05:24:32.879Z,100.00
2022-11-24T05:34:34.620Z,100.00
2022-11-24T05:44:36.431Z,100.00
2022-11-24T05:54:38.052Z,100.00
2022-11-24T06:04:40.446Z,100.00
2022-11-24T06:14:42.264Z,100.00
2022-11-24T06:24:43.615Z,100.00
2022-11-24T06:34:45.000Z,100.00
2022-11-24T06:44:50.050Z,100.00
2022-11-24T06:54:51.450Z,100.00
2022-11-24T07:04:52.819Z,100.00
2022-11-24T07:14:54.475Z,100.00
2022-11-24T07:24:55.825Z,100.00
2022-11-24T07:34:57.147Z,100.00
2022-11-24T07:44:58.488Z,100.00
2022-11-24T07:54:59.885Z,100.00
2022-11-24T08:05:01.370Z,99.19
2022-11-24T08:15:07.836Z,99.09
2022-11-24T08:25:14.358Z,99.08
2022-11-24T08:35:15.775Z,98.77
2022-11-24T08:45:21.956Z,99.01
2022-11-24T08:55:24.548Z,99.25
2022-11-24T09:05:50.731Z,98.51
2022-11-24T09:15:47.489Z,98.78
2022-11-24T09:25:48.912Z,98.76
2022-11-24T09:35:50.455Z,99.08
2022-11-24T09:46:06.317Z,98.35
2022-11-24T09:56:22.398Z,98.80
2022-11-24T10:06:26.912Z,98.39
2022-11-24T10:16:52.538Z,98.46
2022-11-24T10:27:02.315Z,98.21
2022-11-24T10:37:23.495Z,97.38
2022-11-24T10:47:24.856Z,97.44
2022-11-24T10:57:34.190Z,97.04
2022-11-24T11:07:35.631Z,95.72
2022-11-24T11:17:38.977Z,96.11
2022-11-24T11:27:41.147Z,96.66
2022-11-24T11:37:44.014Z,95.88
2022-11-24T11:48:04.073Z,95.77
2022-11-24T11:58:17.359Z,95.64
2022-11-24T12:09:17.948Z,95.18
2022-11-24T12:19:37.574Z,94.14
2022-11-24T12:29:45.110Z,93.65
2022-11-24T12:40:05.430Z,93.26
2022-11-24T12:50:14.541Z,94.33
2022-11-24T13:00:29.046Z,92.81
2022-11-24T13:10:54.634Z,91.67
2022-11-24T13:20:55.299Z,92.26
2022-11-24T13:31:11.259Z,91.76
2022-11-24T13:41:31.284Z,91.50
2022-11-24T13:51:32.955Z,92.16
2022-11-24T14:01:36.577Z,93.17
2022-11-24T14:11:38.145Z,92.76
2022-11-24T14:21:44.244Z,92.48
2022-11-24T14:31:59.442Z,92.57
2022-11-24T14:42:07.813Z,92.27
2022-11-24T14:52:16.315Z,91.89
2022-11-24T15:02:39.720Z,92.06
2022-11-24T15:12:48.385Z,92.19
2022-11-24T15:22:52.281Z,92.35
2022-11-24T15:32:55.060Z,93.03
2022-11-24T15:42:59.600Z,92.77
2022-11-24T15:53:05.738Z,93.47
2022-11-24T16:03:38.360Z,93.28
2022-11-24T16:13:28.769Z,93.79
2022-11-24T16:23:30.112Z,94.21
2022-11-24T16:33:31.839Z,94.67
2022-11-24T16:43:33.273Z,94.71
2022-11-24T16:53:34.667Z,94.70
2022-11-24T17:03:39.483Z,94.74
2022-11-24T17:13:41.738Z,95.55
2022-11-24T17:23:43.359Z,95.83
2022-11-24T17:33:44.675Z,95.30
2022-11-24T17:43:50.320Z,95.19
2022-11-24T17:53:53.399Z,95.20
2022-11-24T18:03:54.753Z,96.43
2022-11-24T18:14:00.768Z,96.02
2022-11-24T18:24:02.658Z,94.94
2022-11-24T18:34:05.612Z,94.98
2022-11-24T18:44:08.620Z,95.63
2022-11-24T18:54:10.180Z,95.41
2022-11-24T19:04:12.714Z,96.24
2022-11-24T19:14:16.679Z,95.22
2022-11-24T19:24:18.023Z,95.30
2022-11-24T19:34:19.471Z,95.07
2022-11-24T19:44:20.874Z,94.79
2022-11-24T19:54:22.219Z,94.98
2022-11-24T20:04:23.675Z,94.73
2022-11-24T20:14:25.168Z,94.43
2022-11-24T20:24:26.539Z,94.82
2022-11-24T20:34:28.373Z,95.19
2022-11-24T20:44:30.200Z,94.15
2022-11-24T20:54:31.566Z,94.33
2022-11-24T21:04:35.029Z,94.27
2022-11-24T21:14:37.052Z,94.34
2022-11-24T21:24:38.559Z,94.54
2022-11-24T21:34:39.886Z,94.88
2022-11-24T21:44:41.264Z,94.93
2022-11-24T21:54:42.619Z,94.79
2022-11-24T22:04:43.927Z,94.81
2022-11-24T22:14:45.903Z,94.73
2022-11-24T22:24:47.398Z,94.38
2022-11-24T22:34:48.733Z,94.35
2022-11-24T22:44:50.074Z,94.59
2022-11-24T22:54:51.396Z,94.77
2022-11-24T23:04:52.799Z,94.69
2022-11-24T23:14:54.099Z,95.35
2022-11-24T23:24:55.427Z,94.85
2022-11-24T23:34:56.763Z,95.31
2022-11-24T23:44:58.091Z,95.06
2022-11-24T23:54:59.406Z,96.00
